createdAt,value
2023-01-29T00:01:12.228Z,6.23
2023-01-29T00:04:13.744Z,6.07
2023-01-29T00:07:15.198Z,5.77
2023-01-29T00:10:17.277Z,6.27
2023-01-29T00:13:18.889Z,6.10
2023-01-29T00:16:20.921Z,11.70
2023-01-29T00:19:22.349Z,6.77
2023-01-29T00:22:24.248Z,6.63
2023-01-29T00:25:25.651Z,7.20
2023-01-29T00:28:27.069Z,5.43
2023-01-29T00:31:28.937Z,8.47
2023-01-29T00:34:30.403Z,5.90
2023-01-29T00:37:31.905Z,8.70
2023-01-29T00:40:56.436Z,5.27
2023-01-29T00:44:17.285Z,5.70
2023-01-29T00:47:30.678Z,8.70
2023-01-29T00:50:32.480Z,5.50
2023-01-29T00:53:33.914Z,4.77
2023-01-29T00:56:36.618Z,5.23
2023-01-29T00:59:38.153Z,4.00
2023-01-29T01:02:57.909Z,6.23
2023-01-29T01:06:09.110Z,5.23
2023-01-29T01:09:29.686Z,6.00
2023-01-29T01:12:31.911Z,7.10
2023-01-29T01:15:40.308Z,6.03
2023-01-29T01:18:42.084Z,5.53
2023-01-29T01:21:45.417Z,5.70
2023-01-29T01:24:46.798Z,6.43
2023-01-29T01:27:48.301Z,7.70
2023-01-29T01:30:49.716Z,5.90
2023-01-29T01:33:51.555Z,7.63
2023-01-29T01:36:58.357Z,5.40
2023-01-29T01:39:59.820Z,5.13
2023-01-29T01:43:02.191Z,5.87
2023-01-29T01:46:03.671Z,5.33
2023-01-29T01:49:16.011Z,5.33
2023-01-29T01:52:19.435Z,5.70
2023-01-29T01:55:24.571Z,5.37
2023-01-29T01:58:30.569Z,6.13
2023-01-29T02:01:32.318Z,5.60
2023-01-29T02:04:52.119Z,4.93
2023-01-29T02:08:12.725Z,5.23
2023-01-29T02:11:14.473Z,5.47
2023-01-29T02:14:16.385Z,6.23
2023-01-29T02:17:19.974Z,5.63
2023-01-29T02:20:27.724Z,5.70
2023-01-29T02:24:00.425Z,6.37
2023-01-29T02:27:19.842Z,5.93
2023-01-29T02:30:33.570Z,6.50
2023-01-29T02:34:02.821Z,5.80
2023-01-29T02:37:12.230Z,5.17
2023-01-29T02:40:18.580Z,5.13
2023-01-29T02:43:38.883Z,5.97
2023-01-29T02:46:54.355Z,5.07
2023-01-29T02:50:04.261Z,5.70
2023-01-29T02:53:15.636Z,5.03
2023-01-29T02:56:24.041Z,5.10
2023-01-29T02:59:32.432Z,5.70
2023-01-29T03:02:37.885Z,6.93
2023-01-29T03:05:58.405Z,5.87
2023-01-29T03:09:07.331Z,5.97
2023-01-29T03:12:33.766Z,5.13
2023-01-29T03:16:01.418Z,5.03
2023-01-29T03:19:38.121Z,6.03
2023-01-29T03:22:56.151Z,5.40
2023-01-29T03:26:18.212Z,6.70
2023-01-29T03:29:39.005Z,5.10
2023-01-29T03:32:44.430Z,5.40
2023-01-29T03:36:02.352Z,6.50
2023-01-29T03:39:08.999Z,5.47
2023-01-29T03:42:26.938Z,5.87
2023-01-29T03:46:18.618Z,4.47
2023-01-29T03:49:53.397Z,5.90
2023-01-29T03:53:08.425Z,4.70
2023-01-29T03:56:15.794Z,5.83
2023-01-29T03:59:31.337Z,4.70
2023-01-29T04:02:56.930Z,5.23
2023-01-29T04:06:09.790Z,5.60
2023-01-29T04:09:25.021Z,5.77
2023-01-29T04:12:34.924Z,4.10
2023-01-29T04:15:46.322Z,11.33
2023-01-29T04:18:48.778Z,5.63
2023-01-29T04:22:02.003Z,4.47
2023-01-29T04:25:15.874Z,6.30
2023-01-29T04:28:43.689Z,4.40
2023-01-29T04:31:57.757Z,5.90
2023-01-29T04:35:29.463Z,4.63
2023-01-29T04:38:49.485Z,4.70
2023-01-29T04:42:22.092Z,3.73
2023-01-29T04:45:41.982Z,4.03
2023-01-29T04:48:58.902Z,4.47
2023-01-29T04:52:20.105Z,5.33
2023-01-29T04:55:51.320Z,6.30
2023-01-29T04:59:03.058Z,4.87
2023-01-29T05:02:06.174Z,4.20
2023-01-29T05:05:09.460Z,5.13
2023-01-29T05:08:14.068Z,4.63
2023-01-29T05:11:17.059Z,4.83
2023-01-29T05:14:20.074Z,4.13
2023-01-29T05:17:21.602Z,3.60
2023-01-29T05:20:23.042Z,3.93
2023-01-29T05:23:24.437Z,4.27
2023-01-29T05:26:45.967Z,5.60
2023-01-29T05:29:47.859Z,6.00
2023-01-29T05:32:49.268Z,4.50
2023-01-29T05:35:51.174Z,4.83
2023-01-29T05:38:52.584Z,4.23
2023-01-29T05:41:54.114Z,4.17
2023-01-29T05:44:55.514Z,5.73
2023-01-29T05:47:58.490Z,5.70
2023-01-29T05:51:01.237Z,5.83
2023-01-29T05:54:02.673Z,4.87
2023-01-29T05:57:04.112Z,5.00
2023-01-29T06:00:06.664Z,7.53
2023-01-29T06:03:13.679Z,6.30
2023-01-29T06:06:15.738Z,6.67
2023-01-29T06:09:17.203Z,5.90
2023-01-29T06:12:18.659Z,6.47
2023-01-29T06:15:20.040Z,5.47
2023-01-29T06:18:21.478Z,4.50
2023-01-29T06:21:22.832Z,6.17
2023-01-29T06:24:24.300Z,5.57
2023-01-29T06:27:25.830Z,7.80
2023-01-29T06:30:28.329Z,5.20
2023-01-29T06:33:29.747Z,6.40
2023-01-29T06:36:31.291Z,5.63
2023-01-29T06:39:32.668Z,6.70
2023-01-29T06:42:37.169Z,7.77
2023-01-29T06:45:38.581Z,4.80
2023-01-29T06:48:39.983Z,9.43
2023-01-29T06:51:41.387Z,5.33
2023-01-29T06:54:42.824Z,7.60
2023-01-29T06:57:44.198Z,6.00
2023-01-29T07:00:45.638Z,6.00
2023-01-29T07:03:49.946Z,6.87
2023-01-29T07:06:51.377Z,10.70
2023-01-29T07:09:52.751Z,6.47
2023-01-29T07:12:54.123Z,6.53
2023-01-29T07:16:02.483Z,7.97
2023-01-29T07:19:03.957Z,5.80
2023-01-29T07:22:05.669Z,8.77
2023-01-29T07:25:07.853Z,7.03
2023-01-29T07:28:09.295Z,7.10
2023-01-29T07:31:13.158Z,8.13
2023-01-29T07:34:14.606Z,6.03
2023-01-29T07:37:15.999Z,12.37
2023-01-29T07:40:17.766Z,7.33
2023-01-29T07:43:19.445Z,5.80
2023-01-29T07:46:20.966Z,5.90
2023-01-29T07:49:22.353Z,7.40
2023-01-29T07:52:23.788Z,6.43
2023-01-29T07:55:25.325Z,9.93
2023-01-29T07:58:26.714Z,7.53
2023-01-29T08:01:28.136Z,8.03
2023-01-29T08:04:29.582Z,6.37
2023-01-29T08:07:31.026Z,6.57
2023-01-29T08:10:33.004Z,6.87
2023-01-29T08:13:34.556Z,6.93
2023-01-29T08:16:36.016Z,7.50
2023-01-29T08:19:37.406Z,7.77
2023-01-29T08:22:38.858Z,5.63
2023-01-29T08:25:40.323Z,9.60
2023-01-29T08:28:41.746Z,7.67
2023-01-29T08:31:43.296Z,5.97
2023-01-29T08:34:44.726Z,7.17
2023-01-29T08:37:53.176Z,7.67
2023-01-29T08:40:54.555Z,7.67
2023-01-29T08:43:57.145Z,7.20
2023-01-29T08:46:58.599Z,7.37
2023-01-29T08:49:59.976Z,6.67
2023-01-29T08:53:03.518Z,8.07
2023-01-29T08:56:05.232Z,8.47
2023-01-29T08:59:06.671Z,7.47
2023-01-29T09:02:10.870Z,5.97
2023-01-29T09:05:12.275Z,8.90
2023-01-29T09:08:13.718Z,9.97
2023-01-29T09:11:15.114Z,7.00
2023-01-29T09:14:16.726Z,8.93
2023-01-29T09:17:18.122Z,5.53
2023-01-29T09:20:20.067Z,6.93
2023-01-29T09:23:22.206Z,7.83
2023-01-29T09:26:23.622Z,5.33
2023-01-29T09:29:25.092Z,6.73
2023-01-29T09:32:51.619Z,5.50
2023-01-29T09:35:48.086Z,5.53
2023-01-29T09:38:49.462Z,4.67
2023-01-29T09:42:19.183Z,5.27
2023-01-29T09:45:26.511Z,5.50
2023-01-29T09:48:31.649Z,6.37
2023-01-29T09:51:48.970Z,7.43
2023-01-29T09:55:02.201Z,6.57
2023-01-29T09:58:22.792Z,5.57
2023-01-29T10:01:36.766Z,11.20
2023-01-29T10:04:50.989Z,5.87
2023-01-29T10:08:11.077Z,7.90
2023-01-29T10:11:20.801Z,8.20
2023-01-29T10:14:52.832Z,6.97
2023-01-29T10:18:19.152Z,7.80
2023-01-29T10:21:48.529Z,6.57
2023-01-29T10:24:54.375Z,9.43
2023-01-29T10:27:59.121Z,7.97
2023-01-29T10:31:36.385Z,11.17
2023-01-29T10:34:46.390Z,10.70
2023-01-29T10:37:48.524Z,14.27
2023-01-29T10:41:11.821Z,10.77
2023-01-29T10:44:13.528Z,10.63
2023-01-29T10:47:42.406Z,10.80
2023-01-29T10:50:54.966Z,11.03
2023-01-29T10:54:08.476Z,9.60
2023-01-29T10:57:15.209Z,11.00
2023-01-29T11:00:26.949Z,10.33
2023-01-29T11:03:31.244Z,11.03
2023-01-29T11:06:35.117Z,10.93
2023-01-29T11:09:42.374Z,10.63
2023-01-29T11:12:45.676Z,11.77
2023-01-29T11:15:47.093Z,11.07
2023-01-29T11:18:53.363Z,10.17
2023-01-29T11:22:00.885Z,12.70
2023-01-29T11:25:20.320Z,12.83
2023-01-29T11:28:41.726Z,11.00
2023-01-29T11:31:43.177Z,12.00
2023-01-29T11:35:15.689Z,13.27
2023-01-29T11:38:19.373Z,12.63
2023-01-29T11:41:22.461Z,10.13
2023-01-29T11:44:38.460Z,9.17
2023-01-29T11:47:39.910Z,10.97
2023-01-29T11:50:41.703Z,11.50
2023-01-29T11:53:49.326Z,10.20
2023-01-29T11:56:51.647Z,9.80
2023-01-29T11:59:55.380Z,11.37
2023-01-29T12:03:06.210Z,11.93
2023-01-29T12:06:18.129Z,11.27
2023-01-29T12:09:27.189Z,11.10
2023-01-29T12:12:30.387Z,11.57
2023-01-29T12:15:31.916Z,14.10
2023-01-29T12:18:42.420Z,12.87
2023-01-29T12:21:57.982Z,13.33
2023-01-29T12:25:22.808Z,11.70
2023-01-29T12:28:54.275Z,14.43
2023-01-29T12:32:12.597Z,11.63
2023-01-29T12:35:26.062Z,10.93
2023-01-29T12:38:27.540Z,13.13
2023-01-29T12:41:36.922Z,11.70
2023-01-29T12:44:44.944Z,11.20
2023-01-29T12:47:53.825Z,9.73
2023-01-29T12:51:09.419Z,11.50
2023-01-29T12:54:16.357Z,10.33
2023-01-29T12:57:53.939Z,9.90
2023-01-29T13:01:00.815Z,10.80
2023-01-29T13:04:17.738Z,11.33
2023-01-29T13:07:25.983Z,10.97
2023-01-29T13:10:41.096Z,9.53
2023-01-29T13:14:00.955Z,11.23
2023-01-29T13:17:40.552Z,12.40
2023-01-29T13:20:43.405Z,11.57
2023-01-29T13:23:57.786Z,12.20
2023-01-29T13:26:59.295Z,9.23
2023-01-29T13:30:01.505Z,10.27
2023-01-29T13:33:09.452Z,10.07
2023-01-29T13:36:20.020Z,9.13
2023-01-29T13:39:34.235Z,9.60
2023-01-29T13:42:43.714Z,10.43
2023-01-29T13:45:45.793Z,9.80
2023-01-29T13:48:50.827Z,9.43
2023-01-29T13:51:52.324Z,10.17
2023-01-29T13:54:57.761Z,10.47
2023-01-29T13:58:03.698Z,9.63
2023-01-29T14:01:05.174Z,10.40
2023-01-29T14:04:18.914Z,10.93
2023-01-29T14:07:49.869Z,11.00
2023-01-29T14:11:16.849Z,11.30
2023-01-29T14:14:51.126Z,10.43
2023-01-29T14:18:10.662Z,10.97
2023-01-29T14:21:31.916Z,11.13
2023-01-29T14:24:33.814Z,10.13
2023-01-29T14:27:36.880Z,11.13
2023-01-29T14:30:40.869Z,11.03
2023-01-29T14:33:43.552Z,11.77
2023-01-29T14:36:47.955Z,12.83
2023-01-29T14:39:57.437Z,11.13
2023-01-29T14:43:06.770Z,13.03
2023-01-29T14:46:33.202Z,12.50
2023-01-29T14:49:52.905Z,9.37
2023-01-29T14:53:00.105Z,9.90
2023-01-29T14:56:29.320Z,9.70
2023-01-29T14:59:37.720Z,10.23
2023-01-29T15:02:42.976Z,11.83
2023-01-29T15:05:45.062Z,11.20
2023-01-29T15:08:56.877Z,10.30
2023-01-29T15:12:28.665Z,11.37
2023-01-29T15:15:38.180Z,10.50
2023-01-29T15:18:42.289Z,14.33
2023-01-29T15:22:07.935Z,11.87
2023-01-29T15:25:15.993Z,10.73
2023-01-29T15:28:17.585Z,10.50
2023-01-29T15:31:20.296Z,10.73
2023-01-29T15:34:22.256Z,12.63
2023-01-29T15:37:29.682Z,10.53
2023-01-29T15:40:31.787Z,11.27
2023-01-29T15:43:42.714Z,9.33
2023-01-29T15:46:49.840Z,10.83
2023-01-29T15:49:52.197Z,10.53
2023-01-29T15:52:55.168Z,10.23
2023-01-29T15:55:58.050Z,10.33
2023-01-29T15:59:04.025Z,9.80
2023-01-29T16:02:29.826Z,10.77
2023-01-29T16:05:32.955Z,11.90
2023-01-29T16:08:35.876Z,12.87
2023-01-29T16:11:37.540Z,11.40
2023-01-29T16:14:40.776Z,10.53
2023-01-29T16:17:42.283Z,11.70
2023-01-29T16:20:47.221Z,11.63
2023-01-29T16:23:52.148Z,12.93
2023-01-29T16:27:00.265Z,14.17
2023-01-29T16:30:02.124Z,16.97
2023-01-29T16:33:05.745Z,11.17
2023-01-29T16:36:18.243Z,16.57
2023-01-29T16:39:27.575Z,21.63
2023-01-29T16:42:32.200Z,18.90
2023-01-29T16:45:33.601Z,20.37
2023-01-29T16:48:35.115Z,21.90
2023-01-29T16:51:39.072Z,20.90
2023-01-29T16:54:43.053Z,20.80
2023-01-29T16:57:49.733Z,19.03
2023-01-29T17:01:07.659Z,23.20
2023-01-29T17:04:18.658Z,19.30
2023-01-29T17:07:22.155Z,24.07
2023-01-29T17:10:24.799Z,25.47
2023-01-29T17:13:45.185Z,24.77
2023-01-29T17:16:50.701Z,19.27
2023-01-29T17:19:52.074Z,12.90
2023-01-29T17:22:53.632Z,13.20
2023-01-29T17:25:55.506Z,12.03
2023-01-29T17:28:56.949Z,12.70
2023-01-29T17:32:00.072Z,11.93
2023-01-29T17:35:01.694Z,10.87
2023-01-29T17:38:03.421Z,10.43
2023-01-29T17:41:25.559Z,9.70
2023-01-29T17:44:26.951Z,12.07
2023-01-29T17:47:28.550Z,11.47
2023-01-29T17:50:32.156Z,12.60
2023-01-29T17:53:45.230Z,11.80
2023-01-29T17:56:48.173Z,11.70
2023-01-29T17:59:49.689Z,10.63
2023-01-29T18:02:51.757Z,9.07
2023-01-29T18:05:53.175Z,14.57
2023-01-29T18:08:54.691Z,11.43
2023-01-29T18:11:56.060Z,15.07
2023-01-29T18:14:57.494Z,19.67
2023-01-29T18:17:59.315Z,30.30
2023-01-29T18:21:00.833Z,20.83
2023-01-29T18:24:02.296Z,18.43
2023-01-29T18:27:03.837Z,16.33
2023-01-29T18:30:05.790Z,11.93
2023-01-29T18:33:07.249Z,14.40
2023-01-29T18:36:08.938Z,14.30
2023-01-29T18:39:10.329Z,17.13
2023-01-29T18:42:11.812Z,20.73
2023-01-29T18:45:15.252Z,31.27
2023-01-29T18:48:16.985Z,32.13
2023-01-29T18:51:18.479Z,38.93
2023-01-29T18:54:21.419Z,31.70
2023-01-29T18:58:25.920Z,25.67
2023-01-29T19:00:44.236Z,29.37
2023-01-29T19:03:45.650Z,30.17
2023-01-29T19:06:47.032Z,28.10
2023-01-29T19:09:50.213Z,28.90
2023-01-29T19:12:51.609Z,25.43
2023-01-29T19:15:53.019Z,24.03
2023-01-29T19:18:55.963Z,21.13
2023-01-29T19:21:57.419Z,16.87
2023-01-29T19:24:58.893Z,14.97
2023-01-29T19:28:00.461Z,12.63
2023-01-29T19:31:02.050Z,14.40
2023-01-29T19:34:03.638Z,13.87
2023-01-29T19:37:05.044Z,15.47
2023-01-29T19:40:08.070Z,22.30
2023-01-29T19:43:09.444Z,21.23
2023-01-29T19:46:10.908Z,19.43
2023-01-29T19:49:12.332Z,16.70
2023-01-29T19:52:48.855Z,18.87
2023-01-29T19:56:06.503Z,19.93
2023-01-29T19:59:07.925Z,21.43
2023-01-29T20:02:09.737Z,18.53
2023-01-29T20:05:12.932Z,14.33
2023-01-29T20:08:14.429Z,15.97
2023-01-29T20:11:18.246Z,14.47
2023-01-29T20:14:19.697Z,15.70
2023-01-29T20:17:21.527Z,14.83
2023-01-29T20:20:22.955Z,14.93
2023-01-29T20:23:37.748Z,19.10
2023-01-29T20:26:40.143Z,15.63
2023-01-29T20:29:43.498Z,15.03
2023-01-29T20:32:44.921Z,15.17
2023-01-29T20:35:56.522Z,16.03
2023-01-29T20:38:57.987Z,16.90
2023-01-29T20:41:59.789Z,15.73
2023-01-29T20:45:01.229Z,16.07
2023-01-29T20:48:02.637Z,17.27
2023-01-29T20:51:07.800Z,17.67
2023-01-29T20:54:09.317Z,21.33
2023-01-29T20:57:10.780Z,19.33
2023-01-29T21:00:15.464Z,17.93
2023-01-29T21:03:17.053Z,19.93
2023-01-29T21:06:18.542Z,20.10
2023-01-29T21:09:20.383Z,19.17
2023-01-29T21:12:21.790Z,18.77
2023-01-29T21:15:24.583Z,22.10
2023-01-29T21:18:26.371Z,25.27
2023-01-29T21:21:27.809Z,26.53
2023-01-29T21:24:29.201Z,26.53
2023-01-29T21:27:30.637Z,21.60
2023-01-29T21:30:32.263Z,24.03
2023-01-29T21:33:34.955Z,27.87
2023-01-29T21:36:36.980Z,25.27
2023-01-29T21:39:38.407Z,27.37
2023-01-29T21:42:58.458Z,25.37
2023-01-29T21:46:11.206Z,24.13
2023-01-29T21:49:12.679Z,28.37
2023-01-29T21:52:14.976Z,28.63
2023-01-29T21:55:16.542Z,30.13
2023-01-29T21:58:19.702Z,25.73
2023-01-29T22:01:37.325Z,25.93
2023-01-29T22:04:40.077Z,27.23
2023-01-29T22:07:41.518Z,26.47
2023-01-29T22:10:43.090Z,23.90
2023-01-29T22:13:44.674Z,21.13
2023-01-29T22:16:46.218Z,24.20
2023-01-29T22:19:47.743Z,17.37
2023-01-29T22:22:49.267Z,17.37
2023-01-29T22:25:50.670Z,20.10
2023-01-29T22:28:52.053Z,16.07
2023-01-29T22:31:53.468Z,18.83
2023-01-29T22:34:54.864Z,15.73
2023-01-29T22:37:56.290Z,17.87
2023-01-29T22:41:00.219Z,16.67
2023-01-29T22:44:02.178Z,16.73
2023-01-29T22:47:03.581Z,16.70
2023-01-29T22:50:06.459Z,15.97
2023-01-29T22:53:08.993Z,15.77
2023-01-29T22:56:11.705Z,17.57
2023-01-29T22:59:13.098Z,16.60
2023-01-29T23:02:14.502Z,15.97
2023-01-29T23:05:17.259Z,16.50
2023-01-29T23:08:18.621Z,16.47
2023-01-29T23:11:23.357Z,16.27
2023-01-29T23:14:24.725Z,14.53
2023-01-29T23:17:26.171Z,15.37
2023-01-29T23:20:27.571Z,15.27
2023-01-29T23:23:30.094Z,15.77
2023-01-29T23:26:50.198Z,15.07
2023-01-29T23:29:51.662Z,16.20
2023-01-29T23:32:53.038Z,17.57
2023-01-29T23:35:54.449Z,15.50
2023-01-29T23:38:55.872Z,16.20
2023-01-29T23:41:57.406Z,16.33
2023-01-29T23:44:58.766Z,17.70
2023-01-29T23:48:00.145Z,16.57
2023-01-29T23:51:01.756Z,14.70
2023-01-29T23:54:03.648Z,15.43
2023-01-29T23:57:05.012Z,17.73
